CheckWX is a tool to help pilots better visualize weather data.  It is not intended as a substitute for an official pre-flight weather briefing.

19:43:53 UTC

KPAM METAR
Tyndall AFB Airport
Panama City, Florida, USA
Current

48 mins ago

KPAM 211856Z AUTO 08009KT 10SM BKN065 30/16 A3014 RMK AO2 SLP209 T03040156 $
Observed
Sep-21 @ 18:56 UTC
Wind
  • 080° at 9 KTS
Visibility
10 SM
Flight Rules
VFR
Cloud Levels
  • Broken at 6,500' AGL
Temperature
30°C / 86°F
Dewpoint
16°C / 61°F
Heat Index
30°C / 86°F
Humidity
43%
Altimeter
30.14" Hg
Pressure
1020.62 hPa
Previous

2 hours ago

KPAM 211756Z AUTO 09012G17KT 10SM SCT060 31/15 A3017 RMK AO2 SLP220 T03070151 10310 20211 57017 $
Observed
Sep-21 @ 17:56 UTC
Wind
  • 090° at 12 KTS
  • Gusting to 17 KTS
Visibility
10 SM
Flight Rules
VFR
Cloud Levels
  • Scattered at 6,000' AGL
Temperature
31°C / 88°F
Dewpoint
15°C / 59°F
Humidity
38%
Altimeter
30.17" Hg
Pressure
1021.72 hPa
Previous

3 hours ago

KPAM 211656Z AUTO 11014G18KT 10SM BKN050 30/17 A3019 RMK AO2 SLP226 T03000171 $
Observed
Sep-21 @ 16:56 UTC
Wind
  • 110° at 14 KTS
  • Gusting to 18 KTS
Visibility
10 SM
Flight Rules
VFR
Cloud Levels
  • Broken at 5,000' AGL
Temperature
30°C / 86°F
Dewpoint
17°C / 63°F
Heat Index
31°C / 87°F
Humidity
46%
Altimeter
30.19" Hg
Pressure
1022.32 hPa